Time;durP1;ratioP1;P1;durP2;ratioP2;P2;SDS_P1;SDS_P2;PMS_P1;PMS_P2;Temp;Humidity;BMP_temperature;BMP_pressure;BME280_temperature;BME280_humidity;BME280_pressure;Samples;Min_cycle;Max_cycle;Signal;HPM_P1;HPM_P2
2024/04/23 00:00:04;;;;;;;5.55;5.00;;;4.70;96.80;;;;;;2235124;26;20429;-68
2024/04/23 00:01:05;;;;;;;6.88;5.80;;;4.70;96.80;;;;;;2237207;26;20010;-68
2024/04/23 00:02:05;;;;;;;7.05;6.15;;;4.70;96.90;;;;;;2239397;26;20003;-68
2024/04/23 00:03:06;;;;;;;9.38;7.80;;;4.70;96.90;;;;;;2240868;26;20444;-68
2024/04/23 00:04:06;;;;;;;7.10;6.40;;;4.70;96.90;;;;;;2236472;26;20459;-68
2024/04/23 00:05:07;;;;;;;6.95;6.25;;;4.70;97.00;;;;;;2235818;26;20004;-67
2024/04/23 00:06:07;;;;;;;8.20;6.05;;;4.60;96.90;;;;;;2237810;26;20808;-68
2024/04/23 00:07:08;;;;;;;7.22;5.95;;;4.60;96.90;;;;;;2236263;26;20010;-68
2024/04/23 00:08:08;;;;;;;6.68;6.07;;;4.70;97.00;;;;;;2233652;26;19995;-68
2024/04/23 00:09:09;;;;;;;6.82;6.22;;;4.60;97.00;;;;;;2235845;26;20004;-67
2024/04/23 00:10:09;;;;;;;7.30;6.60;;;4.60;97.00;;;;;;2236687;26;20000;-68
2024/04/23 00:11:10;;;;;;;7.10;6.30;;;4.60;97.10;;;;;;2237354;26;20015;-68
2024/04/23 00:12:11;;;;;;;6.38;5.85;;;4.60;97.20;;;;;;2237389;26;20000;-68
2024/04/23 00:13:11;;;;;;;6.70;6.00;;;4.60;97.20;;;;;;2233507;26;20003;-68
2024/04/23 00:14:12;;;;;;;6.32;5.72;;;4.60;97.30;;;;;;2233877;26;20885;-68
2024/04/23 00:15:12;;;;;;;6.50;5.53;;;4.60;97.20;;;;;;2236722;26;20038;-68
2024/04/23 00:16:13;;;;;;;7.00;6.30;;;4.60;97.10;;;;;;2236811;26;20028;-68
2024/04/23 00:17:13;;;;;;;6.90;6.20;;;4.50;97.10;;;;;;2237927;26;20008;-68
2024/04/23 00:18:14;;;;;;;6.70;6.00;;;4.50;97.10;;;;;;2239141;26;20003;-67
2024/04/23 00:19:15;;;;;;;7.18;6.47;;;4.50;97.10;;;;;;2238395;26;20442;-68
2024/04/23 00:20:15;;;;;;;8.77;5.95;;;4.50;97.10;;;;;;2237879;26;20754;-68
2024/04/23 00:21:16;;;;;;;7.38;6.32;;;4.50;97.10;;;;;;2233340;26;20011;-67
2024/04/23 00:22:16;;;;;;;5.90;5.40;;;4.50;97.20;;;;;;2236256;26;20039;-68
2024/04/23 00:23:17;;;;;;;6.65;6.05;;;4.50;97.20;;;;;;2237621;26;19999;-68
2024/04/23 00:24:17;;;;;;;6.38;5.78;;;4.50;97.30;;;;;;2237002;26;19999;-68
2024/04/23 00:25:18;;;;;;;7.28;6.40;;;4.50;97.30;;;;;;2234730;26;20068;-68
2024/04/23 00:26:18;;;;;;;10.32;6.65;;;4.50;97.40;;;;;;2232531;26;20038;-67
2024/04/23 00:27:19;;;;;;;6.70;6.00;;;4.50;97.50;;;;;;2235384;26;20015;-67
2024/04/23 00:28:19;;;;;;;6.75;6.10;;;4.50;97.50;;;;;;2237655;26;20014;-68
2024/04/23 00:29:20;;;;;;;6.85;6.22;;;4.50;97.50;;;;;;2239417;26;20003;-67
2024/04/23 00:30:20;;;;;;;6.47;5.88;;;4.50;97.60;;;;;;2239800;26;20003;-68
2024/04/23 00:31:22;;;;;;;7.32;5.90;;;4.40;97.50;;;;;;2238839;26;19996;-68
2024/04/23 00:32:22;;;;;;;8.05;6.70;;;4.40;97.60;;;;;;2233953;26;20716;-68
2024/04/23 00:33:23;;;;;;;7.40;6.70;;;4.40;97.60;;;;;;2236266;26;21872;-68
2024/04/23 00:34:24;;;;;;;8.38;7.63;;;4.40;97.70;;;;;;2236865;26;20000;-68
2024/04/23 00:35:24;;;;;;;8.07;7.30;;;4.40;97.80;;;;;;2236388;26;20003;-67
2024/04/23 00:36:25;;;;;;;8.48;7.65;;;4.40;97.90;;;;;;2235392;26;20007;-68
2024/04/23 00:37:25;;;;;;;7.85;7.15;;;4.40;98.00;;;;;;2238461;26;20039;-67
2024/04/23 00:38:26;;;;;;;8.88;7.97;;;4.40;98.00;;;;;;2236298;26;20008;-67
2024/04/23 00:39:27;;;;;;;7.85;7.15;;;4.40;98.20;;;;;;2236474;26;20023;-68
2024/04/23 00:40:28;;;;;;;8.57;7.28;;;4.40;98.40;;;;;;2234652;26;20004;-68
2024/04/23 00:41:29;;;;;;;8.57;7.78;;;4.40;98.60;;;;;;2233207;26;20003;-68
2024/04/23 00:42:30;;;;;;;9.80;8.80;;;4.40;98.80;;;;;;2235850;26;20339;-67
2024/04/23 00:43:30;;;;;;;10.35;8.82;;;4.40;99.00;;;;;;2236399;26;19996;-68
2024/04/23 00:44:31;;;;;;;9.15;8.35;;;4.40;99.20;;;;;;2235793;26;20015;-68
2024/04/23 00:45:33;;;;;;;9.73;8.73;;;4.40;99.40;;;;;;2236441;26;20436;-68
2024/04/23 00:46:36;;;;;;;10.65;8.82;;;4.40;99.70;;;;;;2237948;26;20332;-68
2024/04/23 00:47:37;;;;;;;10.00;9.00;;;4.40;99.90;;;;;;2233778;26;20015;-68
2024/04/23 00:48:38;;;;;;;10.35;8.43;;;4.40;99.90;;;;;;2235442;26;20011;-68
2024/04/23 00:49:38;;;;;;;8.77;7.88;;;4.40;99.90;;;;;;2237920;26;20336;-68
2024/04/23 00:50:40;;;;;;;10.57;8.40;;;4.40;99.90;;;;;;2232468;26;20020;-68
2024/04/23 00:51:45;;;;;;;9.60;7.72;;;4.40;99.90;;;;;;2233039;26;19996;-67
2024/04/23 00:52:46;;;;;;;9.38;8.40;;;4.40;99.90;;;;;;2236134;26;20462;-67
2024/04/23 00:53:46;;;;;;;9.13;8.32;;;4.40;99.90;;;;;;2237313;26;20556;-68
2024/04/23 00:54:48;;;;;;;8.98;8.18;;;4.40;99.90;;;;;;2232373;26;21247;-68
2024/04/23 00:55:49;;;;;;;10.43;7.63;;;4.40;99.90;;;;;;2237036;26;20003;-68
2024/04/23 00:56:51;;;;;;;10.13;8.00;;;4.40;99.90;;;;;;2235799;26;20001;-68
2024/04/23 00:57:51;;;;;;;8.77;7.88;;;4.40;99.90;;;;;;2236823;26;20050;-67
2024/04/23 00:58:53;;;;;;;8.10;7.32;;;4.40;99.90;;;;;;2236848;26;20011;-68
2024/04/23 00:59:53;;;;;;;8.52;6.70;;;4.40;99.90;;;;;;2236148;26;20003;-68
2024/04/23 01:00:54;;;;;;;8.52;7.70;;;4.40;99.90;;;;;;2236200;26;20014;-68
2024/04/23 01:01:56;;;;;;;8.13;7.25;;;4.40;99.90;;;;;;2236472;26;20018;-68
2024/04/23 01:02:57;;;;;;;7.72;6.93;;;4.40;99.90;;;;;;2236796;26;20010;-68
2024/04/23 01:03:58;;;;;;;7.57;6.88;;;4.40;99.90;;;;;;2234967;26;20008;-68
2024/04/23 01:04:59;;;;;;;7.80;6.80;;;4.40;99.90;;;;;;2237161;26;20366;-68
2024/04/23 01:06:00;;;;;;;8.60;7.80;;;4.40;99.90;;;;;;2238895;26;19996;-68
2024/04/23 01:07:00;;;;;;;7.82;7.05;;;4.40;99.90;;;;;;2236154;26;19996;-67
2024/04/23 01:08:01;;;;;;;7.95;7.15;;;4.40;99.90;;;;;;2235830;26;20043;-67
2024/04/23 01:09:05;;;;;;;7.55;6.80;;;4.40;99.90;;;;;;2238077;26;19999;-68
2024/04/23 01:10:06;;;;;;;8.27;7.47;;;4.40;99.90;;;;;;2235338;26;20011;-68
2024/04/23 01:11:07;;;;;;;8.05;7.25;;;4.40;99.90;;;;;;2235301;26;20015;-68
2024/04/23 01:12:08;;;;;;;6.85;6.25;;;4.40;99.90;;;;;;2237364;26;20000;-67
2024/04/23 01:13:08;;;;;;;8.32;7.22;;;4.40;99.90;;;;;;2234917;26;20003;-68
2024/04/23 01:14:09;;;;;;;6.95;6.35;;;4.40;99.80;;;;;;2234510;26;20046;-69
2024/04/23 01:15:11;;;;;;;12.20;7.05;;;4.30;99.70;;;;;;2236974;26;20000;-68
2024/04/23 01:16:13;;;;;;;7.50;6.75;;;4.30;99.70;;;;;;2235247;26;20480;-68
2024/04/23 01:17:15;;;;;;;8.50;7.10;;;4.30;99.60;;;;;;2237877;26;20007;-68
2024/04/23 01:18:18;;;;;;;8.25;7.45;;;4.30;99.50;;;;;;2236627;26;20498;-68
2024/04/23 01:19:38;;;;;;;8.68;7.40;;;4.30;99.70;;;;;;2238070;26;21204;-67
2024/04/23 01:20:39;;;;;;;7.47;6.80;;;4.30;99.40;;;;;;2237182;26;20010;-68
2024/04/23 01:22:23;;;;;;;7.75;7.03;;;4.20;99.40;;;;;;2235689;26;20000;-68
2024/04/23 01:23:45;;;;;;;7.72;7.03;;;4.20;99.50;;;;;;2234427;26;20021;-68
2024/04/23 01:25:00;;;;;;;7.63;6.72;;;4.20;99.50;;;;;;2233059;26;20040;-68
2024/04/23 01:26:08;;;;;;;8.05;7.25;;;4.20;99.50;;;;;;2235617;26;19999;-67
2024/04/23 01:27:09;;;;;;;8.10;7.30;;;4.20;99.40;;;;;;2233935;26;20015;-68
2024/04/23 01:28:11;;;;;;;8.15;7.22;;;4.20;99.30;;;;;;2233810;26;20032;-68
2024/04/23 01:29:12;;;;;;;8.35;7.55;;;4.20;99.20;;;;;;2235985;26;20008;-68
2024/04/23 01:30:13;;;;;;;8.65;7.28;;;4.10;99.10;;;;;;2236746;26;21088;-68
2024/04/23 01:31:15;;;;;;;8.13;7.43;;;4.10;99.10;;;;;;2238481;26;20528;-67
2024/04/23 01:32:19;;;;;;;8.40;7.22;;;4.10;99.10;;;;;;2235537;26;20003;-68
2024/04/23 01:33:20;;;;;;;8.15;7.28;;;4.10;99.10;;;;;;2236509;26;20002;-68
2024/04/23 01:34:21;;;;;;;8.90;7.60;;;4.10;99.00;;;;;;2232463;26;20000;-68
2024/04/23 01:35:23;;;;;;;7.68;6.90;;;4.10;99.10;;;;;;2232134;26;20000;-68
2024/04/23 01:36:25;;;;;;;8.07;7.28;;;4.10;99.10;;;;;;2234739;26;19995;-67
2024/04/23 01:37:28;;;;;;;8.30;7.47;;;4.00;99.00;;;;;;2251753;26;20549;-68
2024/04/23 01:38:29;;;;;;;7.80;7.10;;;4.00;98.90;;;;;;2249176;26;20408;-68
2024/04/23 01:39:30;;;;;;;8.65;6.88;;;4.00;98.80;;;;;;2235246;26;20014;-67
2024/04/23 01:40:32;;;;;;;7.82;7.13;;;4.00;98.80;;;;;;2236900;26;20006;-68
2024/04/23 01:41:33;;;;;;;8.10;7.38;;;4.00;98.80;;;;;;2229761;26;20891;-67
2024/04/23 01:42:34;;;;;;;8.30;7.10;;;3.90;98.70;;;;;;2234821;26;20012;-68
2024/04/23 01:43:36;;;;;;;7.53;6.80;;;3.90;98.70;;;;;;2236567;26;20035;-68
2024/04/23 01:44:38;;;;;;;8.13;6.95;;;3.90;98.70;;;;;;2236943;26;20409;-68
2024/04/23 01:45:39;;;;;;;6.97;6.38;;;3.90;98.70;;;;;;2235585;26;19995;-67
2024/04/23 01:46:40;;;;;;;9.18;7.38;;;3.90;98.70;;;;;;2236177;26;20393;-67
2024/04/23 01:47:44;;;;;;;7.57;6.88;;;3.90;98.60;;;;;;2237631;26;20750;-67
2024/04/23 01:48:44;;;;;;;7.47;6.78;;;3.90;98.70;;;;;;2233760;26;20027;-67
2024/04/23 01:49:45;;;;;;;8.32;7.55;;;3.90;98.70;;;;;;2236235;26;20003;-67
2024/04/23 01:50:46;;;;;;;8.52;7.72;;;3.80;98.60;;;;;;2237276;26;20333;-68
2024/04/23 01:51:46;;;;;;;8.95;7.43;;;3.80;98.70;;;;;;2237900;26;20491;-67
2024/04/23 01:52:47;;;;;;;8.18;7.38;;;3.80;98.60;;;;;;2236860;26;20430;-67
2024/04/23 01:53:48;;;;;;;7.53;6.75;;;3.80;98.70;;;;;;2235666;26;19995;-68
2024/04/23 01:54:49;;;;;;;7.72;7.03;;;3.80;98.60;;;;;;2236295;26;20011;-67
2024/04/23 01:55:49;;;;;;;8.73;7.40;;;3.70;98.50;;;;;;2237213;26;20022;-67
2024/04/23 01:56:50;;;;;;;7.78;6.97;;;3.80;98.50;;;;;;2236625;26;19991;-67
2024/04/23 01:57:50;;;;;;;9.02;7.65;;;3.70;98.50;;;;;;2234578;26;20053;-67
2024/04/23 01:58:51;;;;;;;7.35;6.50;;;3.70;98.60;;;;;;2236863;26;20000;-67
2024/04/23 01:59:58;;;;;;;7.53;6.72;;;3.70;98.50;;;;;;2235396;26;20008;-67
2024/04/23 02:01:00;;;;;;;7.57;6.90;;;3.70;98.40;;;;;;2236618;26;20371;-67
2024/04/23 02:02:02;;;;;;;7.70;7.00;;;3.70;98.40;;;;;;2237700;26;19991;-68
2024/04/23 02:03:04;;;;;;;8.10;7.30;;;3.70;98.50;;;;;;2235551;26;20003;-67
2024/04/23 02:04:06;;;;;;;7.10;6.50;;;3.60;98.60;;;;;;2234957;26;20011;-67
2024/04/23 02:05:08;;;;;;;7.43;6.72;;;3.70;98.60;;;;;;2237064;26;20006;-67
2024/04/23 02:06:09;;;;;;;7.68;6.95;;;3.60;98.50;;;;;;2235310;26;19999;-67
2024/04/23 02:07:10;;;;;;;6.47;5.97;;;3.60;98.50;;;;;;2238198;26;20004;-67
2024/04/23 02:08:11;;;;;;;8.02;7.22;;;3.60;98.40;;;;;;2232679;26;19996;-68
2024/04/23 02:09:11;;;;;;;7.70;6.75;;;3.60;98.40;;;;;;2232535;26;20039;-67
2024/04/23 02:10:12;;;;;;;8.00;6.82;;;3.60;98.50;;;;;;2236526;26;20045;-68
2024/04/23 02:11:12;;;;;;;8.27;7.47;;;3.60;98.40;;;;;;2233015;26;20037;-67
2024/04/23 02:12:14;;;;;;;7.90;7.10;;;3.50;98.40;;;;;;2231767;26;19995;-68
2024/04/23 02:13:14;;;;;;;7.95;6.72;;;3.60;98.40;;;;;;2230075;26;20431;-68
2024/04/23 02:14:15;;;;;;;7.90;7.20;;;3.50;98.40;;;;;;2235531;26;20011;-68
2024/04/23 02:15:16;;;;;;;8.05;7.20;;;3.50;98.50;;;;;;2236323;26;20015;-67
2024/04/23 02:16:17;;;;;;;7.95;7.15;;;3.50;98.50;;;;;;2236724;26;20007;-67
2024/04/23 02:17:18;;;;;;;8.80;7.90;;;3.50;98.50;;;;;;2237523;26;19996;-67
2024/04/23 02:18:18;;;;;;;7.78;6.97;;;3.50;98.50;;;;;;2236398;26;19995;-67
2024/04/23 02:19:19;;;;;;;7.82;7.05;;;3.50;98.50;;;;;;2235550;26;20053;-67
2024/04/23 02:20:19;;;;;;;7.78;6.95;;;3.50;98.50;;;;;;2238359;26;19995;-68
2024/04/23 02:21:20;;;;;;;8.15;7.35;;;3.40;98.50;;;;;;2237616;26;20009;-67
2024/04/23 02:22:21;;;;;;;7.78;6.97;;;3.40;98.50;;;;;;2237847;26;19995;-67
2024/04/23 02:23:21;;;;;;;7.30;6.47;;;3.40;98.60;;;;;;2234144;26;20011;-67
2024/04/23 02:24:22;;;;;;;8.75;7.95;;;3.40;98.60;;;;;;2237996;26;20000;-67
2024/04/23 02:25:23;;;;;;;7.68;6.97;;;3.40;98.60;;;;;;2236785;26;20000;-68
2024/04/23 02:26:23;;;;;;;8.70;7.80;;;3.40;98.60;;;;;;2235951;26;20003;-68
2024/04/23 02:27:24;;;;;;;8.23;7.30;;;3.40;98.60;;;;;;2237110;26;20068;-67
2024/04/23 02:28:24;;;;;;;8.13;7.32;;;3.40;98.60;;;;;;2235149;26;20054;-67
2024/04/23 02:29:25;;;;;;;8.13;7.35;;;3.40;98.60;;;;;;2250065;26;20005;-67
2024/04/23 02:30:25;;;;;;;7.80;7.00;;;3.40;98.60;;;;;;2248323;26;20010;-67
2024/04/23 02:31:26;;;;;;;8.48;7.70;;;3.30;98.60;;;;;;2235410;26;19999;-68
2024/04/23 02:32:26;;;;;;;8.57;7.75;;;3.30;98.60;;;;;;2235176;26;20003;-67
2024/04/23 02:33:27;;;;;;;8.13;6.88;;;3.30;98.60;;;;;;2230768;26;20000;-68
2024/04/23 02:34:27;;;;;;;7.97;7.30;;;3.30;98.60;;;;;;2235794;26;19996;-68
2024/04/23 02:35:28;;;;;;;8.13;7.43;;;3.30;98.50;;;;;;2241049;26;20010;-68
2024/04/23 02:36:29;;;;;;;7.55;6.85;;;3.30;98.50;;;;;;2238704;26;19996;-68
2024/04/23 02:37:29;;;;;;;8.50;7.55;;;3.30;98.50;;;;;;2235501;26;20013;-68
2024/04/23 02:38:29;;;;;;;8.85;7.43;;;3.30;98.60;;;;;;2236121;26;20007;-68
2024/04/23 02:39:30;;;;;;;7.47;6.78;;;3.30;98.60;;;;;;2235560;26;20011;-67
2024/04/23 02:40:31;;;;;;;8.57;7.25;;;3.20;98.50;;;;;;2237248;26;20116;-67
2024/04/23 02:41:36;;;;;;;8.15;7.35;;;3.20;98.50;;;;;;2236755;26;19999;-68
2024/04/23 02:42:36;;;;;;;8.40;7.63;;;3.20;98.40;;;;;;2234200;26;19997;-67
2024/04/23 02:43:37;;;;;;;7.85;6.72;;;3.20;98.40;;;;;;2236126;26;20014;-68
2024/04/23 02:44:38;;;;;;;8.00;7.20;;;3.20;98.40;;;;;;2232651;26;20036;-67
2024/04/23 02:45:38;;;;;;;6.80;6.20;;;3.20;98.50;;;;;;2235845;26;20447;-67
2024/04/23 02:46:39;;;;;;;8.48;7.13;;;3.20;98.40;;;;;;2235974;26;20007;-67
2024/04/23 02:47:39;;;;;;;7.07;6.38;;;3.20;98.40;;;;;;2234323;26;20015;-67
2024/04/23 02:48:40;;;;;;;7.65;6.95;;;3.10;98.30;;;;;;2235070;26;19996;-67
2024/04/23 02:49:40;;;;;;;8.02;7.13;;;3.10;98.30;;;;;;2237603;26;19992;-67
2024/04/23 02:50:41;;;;;;;8.38;7.57;;;3.10;98.40;;;;;;2236907;26;19995;-67
2024/04/23 02:51:52;;;;;;;7.18;6.55;;;3.10;98.40;;;;;;2236122;26;19999;-67
2024/04/23 02:52:52;;;;;;;8.10;7.30;;;3.10;98.40;;;;;;2232163;26;20012;-67
2024/04/23 02:53:53;;;;;;;7.97;7.18;;;3.10;98.30;;;;;;2235606;26;20034;-67
2024/04/23 02:54:53;;;;;;;7.20;6.35;;;3.10;98.30;;;;;;2236708;26;20022;-67
2024/04/23 02:55:54;;;;;;;6.90;6.30;;;3.10;98.30;;;;;;2237935;26;20353;-67
2024/04/23 02:56:55;;;;;;;8.02;7.07;;;3.10;98.30;;;;;;2235134;26;20097;-68
2024/04/23 02:57:55;;;;;;;8.50;7.15;;;3.10;98.20;;;;;;2236150;26;20031;-67
2024/04/23 02:58:57;;;;;;;8.82;7.25;;;3.00;98.20;;;;;;2235355;26;20012;-67
2024/04/23 02:59:58;;;;;;;7.40;6.60;;;3.00;98.20;;;;;;2232813;26;20466;-66
2024/04/23 03:00:58;;;;;;;7.57;6.88;;;3.00;98.20;;;;;;2232470;26;20363;-67
2024/04/23 03:02:06;;;;;;;7.53;6.82;;;3.00;98.30;;;;;;2249963;26;20013;-67
2024/04/23 03:03:06;;;;;;;7.60;6.90;;;3.00;98.30;;;;;;2246998;26;20006;-67
2024/04/23 03:04:07;;;;;;;7.90;7.10;;;3.00;98.30;;;;;;2232411;26;20707;-67
2024/04/23 03:05:07;;;;;;;7.40;6.70;;;3.00;98.30;;;;;;2232363;26;20016;-67
2024/04/23 03:06:08;;;;;;;7.35;6.65;;;2.90;98.20;;;;;;2236875;26;20000;-67
2024/04/23 03:07:08;;;;;;;6.85;6.25;;;3.00;98.20;;;;;;2235732;26;19999;-67
2024/04/23 03:08:09;;;;;;;12.88;7.28;;;2.90;98.20;;;;;;2232103;26;20666;-67
2024/04/23 03:09:09;;;;;;;7.47;6.75;;;2.90;98.20;;;;;;2231680;26;20498;-67
2024/04/23 03:10:10;;;;;;;7.15;6.45;;;2.90;98.20;;;;;;2235513;26;19999;-67
2024/04/23 03:11:10;;;;;;;8.13;7.32;;;2.90;98.30;;;;;;2235122;26;20007;-67
2024/04/23 03:12:11;;;;;;;7.85;7.00;;;2.90;98.40;;;;;;2235819;26;20000;-67
2024/04/23 03:13:11;;;;;;;7.18;6.53;;;2.90;98.40;;;;;;2236048;26;20696;-67
2024/04/23 03:14:12;;;;;;;7.57;6.88;;;2.90;98.40;;;;;;2236146;26;20007;-67
2024/04/23 03:15:12;;;;;;;8.13;7.32;;;2.90;98.50;;;;;;2235225;26;19995;-68
2024/04/23 03:16:13;;;;;;;7.65;6.95;;;2.90;98.50;;;;;;2235272;26;20019;-67
2024/04/23 03:17:13;;;;;;;7.65;6.95;;;2.80;98.50;;;;;;2230988;26;20006;-67
2024/04/23 03:18:14;;;;;;;7.10;6.47;;;2.90;98.60;;;;;;2233126;26;20481;-67
2024/04/23 03:19:14;;;;;;;7.63;6.72;;;2.90;98.70;;;;;;2234345;26;20010;-68
2024/04/23 03:20:15;;;;;;;8.13;7.20;;;2.90;98.70;;;;;;2236836;26;20000;-67
2024/04/23 03:21:15;;;;;;;8.80;7.45;;;2.80;98.70;;;;;;2232859;26;20007;-67
2024/04/23 03:22:16;;;;;;;8.10;7.30;;;2.80;98.80;;;;;;2237676;26;20040;-67
2024/04/23 03:23:16;;;;;;;8.20;7.40;;;2.80;98.80;;;;;;2234670;26;19995;-67
2024/04/23 03:24:17;;;;;;;8.35;7.55;;;2.80;98.80;;;;;;2237526;26;20010;-67
2024/04/23 03:25:17;;;;;;;8.18;7.20;;;2.80;98.80;;;;;;2237996;26;20337;-67
2024/04/23 03:26:18;;;;;;;7.00;6.35;;;2.80;98.80;;;;;;2236630;26;20072;-67
2024/04/23 03:27:19;;;;;;;7.78;6.97;;;2.80;98.80;;;;;;2230821;26;20000;-67
2024/04/23 03:28:19;;;;;;;7.90;7.10;;;2.80;98.80;;;;;;2236296;26;20014;-68
2024/04/23 03:29:20;;;;;;;9.10;7.43;;;2.80;98.90;;;;;;2236363;26;20435;-67
2024/04/23 03:30:20;;;;;;;7.68;7.05;;;2.70;98.90;;;;;;2238008;26;20000;-67
2024/04/23 03:31:21;;;;;;;7.85;7.07;;;2.70;98.90;;;;;;2234265;26;20000;-68
2024/04/23 03:32:21;;;;;;;7.43;6.72;;;2.70;99.20;;;;;;2235142;26;20009;-67
2024/04/23 03:33:22;;;;;;;7.85;7.13;;;2.70;98.80;;;;;;2238049;26;20010;-67
2024/04/23 03:34:22;;;;;;;7.88;6.85;;;2.70;98.90;;;;;;2236208;26;20019;-67
2024/04/23 03:35:23;;;;;;;7.80;7.10;;;2.70;98.90;;;;;;2236601;26;20007;-67
2024/04/23 03:36:23;;;;;;;7.93;7.22;;;2.70;98.90;;;;;;2239209;26;20040;-67
2024/04/23 03:37:24;;;;;;;8.00;7.00;;;2.70;98.90;;;;;;2236328;26;19996;-68
2024/04/23 03:38:25;;;;;;;8.40;7.60;;;2.70;98.90;;;;;;2236913;26;20008;-67
2024/04/23 03:39:25;;;;;;;8.48;7.68;;;2.70;98.90;;;;;;2238674;26;19996;-67
2024/04/23 03:40:25;;;;;;;7.75;7.05;;;2.70;99.00;;;;;;2237993;26;20023;-67
2024/04/23 03:41:26;;;;;;;9.02;7.53;;;2.70;99.10;;;;;;2235463;26;20386;-67
2024/04/23 03:42:26;;;;;;;7.88;7.05;;;2.70;99.10;;;;;;2237482;26;20019;-67
2024/04/23 03:43:27;;;;;;;7.93;7.22;;;2.70;99.10;;;;;;2234116;26;19999;-67
2024/04/23 03:44:28;;;;;;;7.28;6.68;;;2.70;99.10;;;;;;2236244;26;20008;-68
2024/04/23 03:45:29;;;;;;;8.82;7.32;;;2.70;99.10;;;;;;2237411;26;20105;-68
2024/04/23 03:46:29;;;;;;;9.10;8.02;;;2.70;99.10;;;;;;2237240;26;19992;-67
2024/04/23 03:47:31;;;;;;;7.68;6.93;;;2.70;99.10;;;;;;2238612;26;20003;-67
2024/04/23 03:48:32;;;;;;;8.20;7.40;;;2.70;99.10;;;;;;2236459;26;20006;-67
2024/04/23 03:49:32;;;;;;;7.97;7.18;;;2.70;99.10;;;;;;2232855;26;20010;-67
2024/04/23 03:50:33;;;;;;;7.95;7.20;;;2.60;99.10;;;;;;2235695;26;20522;-67
2024/04/23 03:51:33;;;;;;;7.95;7.15;;;2.60;99.10;;;;;;2234753;26;19996;-67
2024/04/23 03:52:34;;;;;;;8.30;7.28;;;2.70;99.20;;;;;;2237052;26;19996;-68
2024/04/23 03:53:34;;;;;;;7.28;6.60;;;2.60;99.10;;;;;;2238120;26;20000;-67
2024/04/23 03:54:35;;;;;;;8.35;6.85;;;2.60;99.10;;;;;;2235991;26;19992;-67
2024/04/23 03:55:36;;;;;;;8.52;7.32;;;2.60;99.10;;;;;;2235973;26;20014;-67
2024/04/23 03:56:37;;;;;;;8.27;6.95;;;2.60;99.00;;;;;;2237360;26;20047;-67
2024/04/23 03:57:37;;;;;;;7.57;6.88;;;2.60;99.00;;;;;;2236155;26;20014;-67
2024/04/23 03:58:38;;;;;;;8.43;7.45;;;2.60;98.90;;;;;;2232633;26;20324;-67
2024/04/23 03:59:38;;;;;;;9.32;7.57;;;2.60;98.90;;;;;;2235774;26;20058;-67
2024/04/23 04:00:39;;;;;;;7.82;7.03;;;2.60;98.90;;;;;;2236288;26;20004;-67
2024/04/23 04:01:39;;;;;;;7.88;7.18;;;2.60;98.90;;;;;;2238020;26;20018;-67
2024/04/23 04:06:57;;;;;;;7.43;6.70;;;2.50;98.90;;;;;;2233576;26;20011;-67
2024/04/23 04:07:57;;;;;;;7.13;6.25;;;2.50;98.90;;;;;;2232132;26;20016;-67
2024/04/23 04:08:58;;;;;;;8.02;7.22;;;2.40;98.90;;;;;;2236164;26;19995;-67
2024/04/23 04:09:58;;;;;;;10.02;7.40;;;2.50;98.90;;;;;;2234610;26;19999;-67
2024/04/23 04:10:59;;;;;;;8.45;7.65;;;2.40;98.80;;;;;;2236611;26;21079;-67
2024/04/23 04:12:00;;;;;;;11.15;8.13;;;2.40;98.80;;;;;;2232350;26;20514;-67
2024/04/23 04:13:00;;;;;;;8.15;7.35;;;2.40;98.80;;;;;;2235003;26;20650;-67
2024/04/23 04:14:01;;;;;;;8.07;7.28;;;2.40;98.70;;;;;;2234775;26;20458;-67
2024/04/23 04:15:02;;;;;;;12.18;7.43;;;2.40;98.70;;;;;;2233363;26;20601;-67
2024/04/23 04:16:02;;;;;;;7.85;7.05;;;2.40;98.70;;;;;;2232949;26;20004;-67
2024/04/23 04:17:03;;;;;;;8.25;7.25;;;2.40;98.70;;;;;;2236008;26;20011;-67
2024/04/23 04:18:04;;;;;;;8.43;7.70;;;2.40;99.10;;;;;;2234995;26;20004;-67
2024/04/23 04:19:04;;;;;;;7.63;6.93;;;2.40;98.80;;;;;;2234226;26;20448;-67
2024/04/23 04:20:06;;;;;;;7.35;6.65;;;2.40;98.80;;;;;;2236070;26;20003;-67
2024/04/23 04:21:07;;;;;;;7.53;6.82;;;2.40;98.80;;;;;;2222859;26;20015;-67
2024/04/23 04:22:07;;;;;;;6.97;6.30;;;2.40;98.80;;;;;;2221044;26;20004;-67
2024/04/23 04:23:08;;;;;;;7.82;7.03;;;2.40;98.70;;;;;;2233348;26;20019;-67
2024/04/23 04:24:09;;;;;;;8.10;7.22;;;2.40;98.60;;;;;;2237620;26;20011;-67
2024/04/23 04:25:09;;;;;;;8.55;6.97;;;2.40;98.70;;;;;;2234611;26;20590;-67
2024/04/23 04:26:11;;;;;;;8.60;7.30;;;2.40;98.90;;;;;;2236146;26;20007;-67
2024/04/23 04:27:12;;;;;;;7.63;6.93;;;2.30;98.60;;;;;;2235043;26;20011;-67
2024/04/23 04:28:13;;;;;;;7.60;6.90;;;2.30;98.80;;;;;;2235422;26;19995;-67
2024/04/23 04:29:13;;;;;;;9.77;6.15;;;2.30;98.50;;;;;;2236201;26;20003;-67
2024/04/23 04:30:14;;;;;;;8.05;7.25;;;2.40;98.50;;;;;;2236618;26;20590;-67
2024/04/23 04:31:14;;;;;;;7.90;6.95;;;2.30;98.50;;;;;;2234220;26;20428;-67
2024/04/23 04:32:15;;;;;;;8.40;7.38;;;2.30;98.80;;;;;;2235177;26;20011;-67
2024/04/23 04:33:15;;;;;;;7.85;6.88;;;2.30;98.50;;;;;;2238190;26;20461;-67
2024/04/23 04:34:16;;;;;;;7.80;7.00;;;2.40;98.60;;;;;;2233521;26;21335;-67
2024/04/23 04:35:16;;;;;;;10.77;7.13;;;2.30;98.60;;;;;;2231031;26;19995;-67
2024/04/23 04:36:17;;;;;;;9.35;7.95;;;2.40;98.70;;;;;;2236961;26;20495;-66
2024/04/23 04:37:17;;;;;;;7.65;6.95;;;2.30;98.80;;;;;;2232713;26;19999;-67
2024/04/23 04:38:18;;;;;;;8.52;7.72;;;2.30;98.90;;;;;;2233870;26;20006;-66
2024/04/23 04:39:18;;;;;;;8.23;7.43;;;2.30;98.90;;;;;;2236630;26;20583;-67
2024/04/23 04:40:19;;;;;;;8.05;7.25;;;2.30;98.90;;;;;;2237146;26;20068;-67
2024/04/23 04:41:19;;;;;;;8.95;8.02;;;2.40;99.10;;;;;;2238754;26;20068;-67
2024/04/23 04:42:20;;;;;;;8.25;7.45;;;2.30;99.10;;;;;;2235111;26;20004;-67
2024/04/23 04:43:20;;;;;;;8.75;7.85;;;2.30;99.10;;;;;;2236485;26;20003;-67
2024/04/23 04:44:21;;;;;;;8.40;7.50;;;2.30;99.00;;;;;;2235661;26;20007;-67
2024/04/23 04:45:21;;;;;;;10.00;7.18;;;2.30;99.00;;;;;;2234817;26;20624;-67
2024/04/23 04:46:22;;;;;;;9.82;8.00;;;2.30;99.10;;;;;;2233846;26;20015;-67
2024/04/23 04:47:22;;;;;;;12.82;8.43;;;2.30;99.10;;;;;;2235408;26;20012;-67
2024/04/23 04:48:23;;;;;;;8.18;7.38;;;2.30;99.20;;;;;;2239312;26;20076;-67
2024/04/23 04:49:23;;;;;;;9.75;7.43;;;2.30;99.20;;;;;;2237966;26;20101;-67
2024/04/23 04:50:24;;;;;;;11.25;8.43;;;2.30;99.20;;;;;;2233152;26;20007;-67
2024/04/23 04:51:24;;;;;;;8.70;7.80;;;2.30;99.20;;;;;;2235712;26;20086;-67
2024/04/23 04:52:25;;;;;;;8.50;7.70;;;2.30;99.50;;;;;;2235551;26;19991;-67
2024/04/23 04:53:25;;;;;;;9.40;8.13;;;2.30;99.20;;;;;;2236864;26;19992;-67
2024/04/23 04:54:26;;;;;;;9.43;8.43;;;2.40;99.30;;;;;;2235726;26;20458;-67
2024/04/23 04:55:30;;;;;;;10.48;8.90;;;2.30;99.30;;;;;;2238948;26;20000;-67
2024/04/23 04:56:30;;;;;;;8.55;7.75;;;2.40;99.40;;;;;;2237173;26;20047;-68
2024/04/23 04:57:32;;;;;;;9.20;8.30;;;2.40;99.40;;;;;;2238697;26;20003;-67
2024/04/23 04:58:33;;;;;;;8.35;7.55;;;2.30;99.40;;;;;;2236993;26;19999;-67
2024/04/23 04:59:33;;;;;;;9.30;7.78;;;2.40;99.40;;;;;;2236776;26;19995;-66
2024/04/23 05:00:34;;;;;;;9.18;8.27;;;2.40;99.40;;;;;;2237320;26;19991;-67
2024/04/23 05:01:35;;;;;;;9.15;8.25;;;2.40;99.40;;;;;;2237452;26;19991;-67
2024/04/23 05:02:35;;;;;;;8.43;7.63;;;2.40;99.40;;;;;;2234194;26;20016;-67
2024/04/23 05:03:36;;;;;;;9.45;8.25;;;2.40;99.40;;;;;;2237319;26;20452;-67
2024/04/23 05:04:36;;;;;;;9.43;8.50;;;2.40;99.40;;;;;;2236228;26;20004;-67
2024/04/23 05:05:37;;;;;;;9.90;8.73;;;2.40;99.40;;;;;;2235482;26;20004;-67
2024/04/23 05:06:37;;;;;;;10.25;9.35;;;2.40;99.60;;;;;;2236450;26;20007;-67
2024/04/23 05:07:38;;;;;;;11.80;10.60;;;2.40;99.70;;;;;;2236429;26;20003;-67
2024/04/23 05:08:38;;;;;;;11.13;9.25;;;2.40;99.80;;;;;;2237357;26;20011;-67
2024/04/23 05:09:39;;;;;;;11.00;9.85;;;2.40;99.80;;;;;;2235813;26;20441;-67
2024/04/23 05:10:41;;;;;;;11.57;9.50;;;2.40;99.90;;;;;;2236929;26;20000;-67
2024/04/23 05:11:44;;;;;;;10.93;9.75;;;2.40;99.90;;;;;;2235850;26;20076;-67
2024/04/23 05:12:45;;;;;;;10.13;9.13;;;2.40;99.90;;;;;;2231922;26;20015;-67
2024/04/23 05:13:45;;;;;;;11.63;10.43;;;2.40;99.90;;;;;;2234684;26;20004;-68
2024/04/23 05:14:46;;;;;;;11.93;9.90;;;2.50;99.90;;;;;;2235119;26;19999;-68
2024/04/23 05:15:46;;;;;;;10.75;9.23;;;2.50;99.90;;;;;;2236305;26;19995;-67
2024/04/23 05:16:47;;;;;;;12.55;11.25;;;2.50;99.90;;;;;;2236640;26;20003;-67
2024/04/23 05:17:47;;;;;;;12.43;10.38;;;2.60;99.90;;;;;;2238709;26;20014;-67
2024/04/23 05:18:48;;;;;;;18.15;12.77;;;2.60;99.90;;;;;;2234680;26;20006;-67
2024/04/23 05:19:49;;;;;;;14.43;10.73;;;2.60;99.90;;;;;;2236059;26;20019;-67
2024/04/23 05:20:49;;;;;;;13.77;10.63;;;2.60;99.90;;;;;;2238413;26;19996;-67
2024/04/23 05:21:50;;;;;;;12.40;11.02;;;2.70;99.90;;;;;;2237500;26;20005;-67
2024/04/23 05:22:50;;;;;;;13.25;11.90;;;2.70;99.90;;;;;;2235590;26;20436;-67
2024/04/23 05:23:51;;;;;;;16.35;12.85;;;2.70;99.90;;;;;;2236131;26;20364;-67
2024/04/23 05:24:51;;;;;;;15.20;12.38;;;2.80;99.90;;;;;;2233986;26;20390;-68
2024/04/23 05:25:52;;;;;;;15.43;12.25;;;2.90;99.90;;;;;;2236809;26;20080;-67